Time;durP1;ratioP1;P1;durP2;ratioP2;P2;SDS_P1;SDS_P2;PMS_P1;PMS_P2;Temp;Humidity;BMP_temperature;BMP_pressure;BME280_temperature;BME280_humidity;BME280_pressure;Samples;Min_cycle;Max_cycle;Signal;HPM_P1;HPM_P2
2021/05/26 00:00:50;;;;;;;;;;;;;;;15.17;76.22;97334.94;1749135;81;20144;-77
2021/05/26 00:03:17;;;;;;;;;;;;;;;15.15;72.78;97337.24;1747943;82;20150;-84
2021/05/26 00:05:43;;;;;;;;;;;;;;;15.15;71.98;97343.88;1748033;82;20162;-86
2021/05/26 00:08:09;;;;;;;;;;;;;;;15.17;72.25;97346.89;1747861;82;20146;-86
2021/05/26 00:10:35;;;;;;;;;;;;;;;15.17;73.51;97354.38;1747880;82;20162;-84
2021/05/26 00:13:01;;;;;;;;;;;;;;;15.17;72.08;97347.73;1747985;82;20157;-87
2021/05/26 00:15:27;;;;;;;;;;;;;;;15.17;72.82;97350.39;1747630;82;20487;-85
2021/05/26 00:17:53;;;;;;;;;;;;;;;15.18;71.94;97349.89;1745657;81;20143;-83
2021/05/26 00:20:19;;;;;;;;;;;;;;;15.16;72.14;97354.03;1748013;82;20186;-79
2021/05/26 00:22:45;;;;;;;;;;;;;;;15.11;72.93;97344.32;1748010;82;20168;-79
2021/05/26 00:25:13;;;;;;;;;;;;;;;15.09;72.34;97335.19;1747786;82;20150;-81
2021/05/26 00:27:39;;;;;;;;;;;;;;;15.10;72.48;97337.34;1766383;80;20508;-82
2021/05/26 00:30:09;;;;;;;;;;;;;;;15.09;73.13;97344.95;1762905;80;20177;-82
2021/05/26 00:32:35;;;;;;;;;;;;;;;15.07;72.09;97347.77;1764448;80;20242;-82
2021/05/26 00:35:01;;;;;;;;;;;;;;;15.08;71.68;97338.81;1784203;80;20187;-85
2021/05/26 00:37:27;;;;;;;;;;;;;;;15.05;71.82;97329.81;1784346;80;20159;-81
2021/05/26 00:39:53;;;;;;;;;;;;;;;15.04;71.61;97320.67;1768007;80;20145;-78
2021/05/26 00:42:21;;;;;;;;;;;;;;;15.02;71.82;97314.67;1758065;80;20199;-79
2021/05/26 00:44:52;;;;;;;;;;;;;;;14.97;71.90;97305.34;1758145;80;20175;-79
2021/05/26 00:47:48;;;;;;;;;;;;;;;14.95;71.75;97306.45;1759295;80;20161;-75
2021/05/26 00:50:20;;;;;;;;;;;;;;;14.92;71.80;97324.01;1755477;80;20174;-79
2021/05/26 00:52:47;;;;;;;;;;;;;;;14.87;72.50;97327.09;1740640;82;20513;-77
2021/05/26 00:55:15;;;;;;;;;;;;;;;14.86;73.25;97320.11;1740451;82;20474;-82
2021/05/26 00:57:42;;;;;;;;;;;;;;;14.88;72.40;97318.63;1746706;82;20214;-79
2021/05/26 01:00:11;;;;;;;;;;;;;;;14.88;72.91;97317.30;1749724;82;20156;-77
2021/05/26 01:02:38;;;;;;;;;;;;;;;14.89;72.19;97305.23;1734320;82;20179;-79
2021/05/26 01:05:08;;;;;;;;;;;;;;;14.90;72.97;97315.34;1749527;82;20148;-78
2021/05/26 01:07:34;;;;;;;;;;;;;;;14.89;72.85;97315.00;1749638;81;20159;-78
2021/05/26 01:10:03;;;;;;;;;;;;;;;14.87;72.87;97311.64;1749439;81;20164;-83
2021/05/26 01:12:31;;;;;;;;;;;;;;;14.89;72.70;97303.91;1748591;81;20519;-77
2021/05/26 01:14:59;;;;;;;;;;;;;;;14.91;72.46;97309.06;1749188;81;20171;-77
2021/05/26 01:17:26;;;;;;;;;;;;;;;14.91;72.30;97313.86;1723513;82;20130;-80
2021/05/26 01:19:52;;;;;;;;;;;;;;;14.93;72.96;97317.72;1745490;82;20162;-79
2021/05/26 01:22:19;;;;;;;;;;;;;;;14.98;73.66;97321.62;1747219;82;20136;-81
2021/05/26 01:24:47;;;;;;;;;;;;;;;15.03;72.92;97329.62;1744191;82;20185;-77
2021/05/26 01:27:13;;;;;;;;;;;;;;;15.06;73.78;97341.28;1742573;82;20154;-78
2021/05/26 01:29:43;;;;;;;;;;;;;;;15.11;74.08;97347.83;1754124;82;20165;-79
2021/05/26 01:32:09;;;;;;;;;;;;;;;15.12;72.97;97353.48;1750989;82;20149;-77
2021/05/26 01:34:37;;;;;;;;;;;;;;;15.10;72.91;97357.24;1745263;82;20218;-81
2021/05/26 01:37:03;;;;;;;;;;;;;;;15.08;73.32;97371.17;1735164;83;20191;-78
2021/05/26 01:39:31;;;;;;;;;;;;;;;15.09;73.52;97388.28;1735739;83;20151;-78
2021/05/26 01:41:57;;;;;;;;;;;;;;;15.10;73.56;97389.95;1736576;83;20181;-79
2021/05/26 01:44:26;;;;;;;;;;;;;;;15.08;73.83;97379.14;1736521;83;20175;-79
2021/05/26 01:46:54;;;;;;;;;;;;;;;15.06;73.85;97379.27;1732070;83;20136;-77
2021/05/26 01:49:22;;;;;;;;;;;;;;;15.07;73.08;97386.25;1734521;83;20159;-78
2021/05/26 01:51:48;;;;;;;;;;;;;;;15.02;73.35;97387.66;1736682;83;20198;-78
2021/05/26 01:54:14;;;;;;;;;;;;;;;14.99;73.26;97385.64;1736358;83;20175;-80
2021/05/26 01:56:41;;;;;;;;;;;;;;;14.91;73.34;97385.52;1734651;83;20195;-85
2021/05/26 01:59:11;;;;;;;;;;;;;;;14.77;73.36;97396.09;1702496;83;20135;-84
2021/05/26 02:01:39;;;;;;;;;;;;;;;14.68;73.60;97396.48;1733972;83;20159;-82
2021/05/26 02:04:07;;;;;;;;;;;;;;;14.63;73.95;97402.65;1735000;83;20195;-82
2021/05/26 02:06:33;;;;;;;;;;;;;;;14.50;73.79;97420.69;1736790;83;20159;-83
2021/05/26 02:09:00;;;;;;;;;;;;;;;14.42;74.29;97419.22;1736481;83;20196;-80
2021/05/26 02:14:12;;;;;;;;;;;;;;;14.38;75.61;97446.52;1735648;82;20211;-83
2021/05/26 02:16:39;;;;;;;;;;;;;;;14.30;74.75;97440.56;1734380;83;20147;-81
2021/05/26 02:19:05;;;;;;;;;;;;;;;14.21;75.02;97452.00;1733487;83;20172;-79
2021/05/26 02:21:32;;;;;;;;;;;;;;;14.11;74.78;97449.31;1735526;83;20222;-79
2021/05/26 02:23:59;;;;;;;;;;;;;;;14.06;75.57;97443.59;1736367;83;20191;-79
2021/05/26 02:26:26;;;;;;;;;;;;;;;13.94;76.04;97451.30;1734840;83;20155;-78
2021/05/26 02:28:55;;;;;;;;;;;;;;;13.77;76.39;97448.84;1724799;83;20144;-78
2021/05/26 02:31:22;;;;;;;;;;;;;;;13.55;76.58;97449.38;1699770;83;20260;-82
2021/05/26 02:33:52;;;;;;;;;;;;;;;13.42;77.12;97462.34;1723787;83;20160;-80
2021/05/26 02:36:19;;;;;;;;;;;;;;;13.40;76.17;97476.23;1721594;83;20184;-78
2021/05/26 02:38:47;;;;;;;;;;;;;;;13.37;76.07;97484.86;1721595;83;20153;-79
2021/05/26 02:41:15;;;;;;;;;;;;;;;13.26;75.83;97483.14;1722984;83;20176;-78
2021/05/26 02:43:42;;;;;;;;;;;;;;;13.19;75.74;97483.31;1696543;83;20133;-79
2021/05/26 02:46:08;;;;;;;;;;;;;;;13.12;75.15;97485.63;1720208;83;20163;-79
2021/05/26 02:48:34;;;;;;;;;;;;;;;13.01;74.94;97490.98;1724186;83;20171;-80
2021/05/26 02:51:00;;;;;;;;;;;;;;;12.89;75.09;97496.83;1749673;82;20488;-78
2021/05/26 02:53:28;;;;;;;;;;;;;;;12.83;74.42;97501.31;1751111;81;20542;-78
2021/05/26 02:55:55;;;;;;;;;;;;;;;12.77;74.60;97507.95;1750817;82;20199;-79
2021/05/26 02:58:39;;;;;;;;;;;;;;;12.71;74.43;97520.38;1750727;82;20130;-78
2021/05/26 03:01:25;;;;;;;;;;;;;;;12.69;74.46;97522.30;1743777;82;20154;-79
2021/05/26 03:04:05;;;;;;;;;;;;;;;12.59;73.83;97522.20;1749252;82;20142;-78
2021/05/26 03:06:36;;;;;;;;;;;;;;;12.53;73.90;97538.57;1750511;82;20225;-78
2021/05/26 03:09:04;;;;;;;;;;;;;;;12.47;74.07;97563.23;1750597;82;20167;-79
2021/05/26 03:11:32;;;;;;;;;;;;;;;12.51;74.09;97561.18;1750122;82;20189;-78
2021/05/26 03:14:03;;;;;;;;;;;;;;;12.52;74.19;97566.83;1748143;82;20149;-78
2021/05/26 03:16:29;;;;;;;;;;;;;;;12.61;74.28;97574.48;1750788;81;20540;-77
2021/05/26 03:18:56;;;;;;;;;;;;;;;12.71;74.19;97592.61;1750357;81;20295;-78
2021/05/26 03:21:23;;;;;;;;;;;;;;;12.75;72.83;97584.80;1759510;80;20134;-78
2021/05/26 03:23:53;;;;;;;;;;;;;;;12.76;72.63;97581.66;1763590;80;20143;-78
2021/05/26 03:26:30;;;;;;;;;;;;;;;12.77;73.00;97578.88;1758905;80;20179;-78
2021/05/26 03:28:57;;;;;;;;;;;;;;;12.83;72.91;97578.86;1760721;81;20187;-77
2021/05/26 03:31:23;;;;;;;;;;;;;;;12.74;72.00;97573.00;1762679;81;20163;-78
2021/05/26 03:33:49;;;;;;;;;;;;;;;12.73;72.45;97577.92;1762411;81;20160;-77
2021/05/26 03:36:15;;;;;;;;;;;;;;;12.79;72.64;97582.73;1732977;83;20464;-78
2021/05/26 03:38:43;;;;;;;;;;;;;;;12.89;73.33;97573.55;1746964;81;20154;-79
2021/05/26 03:41:11;;;;;;;;;;;;;;;12.97;72.84;97567.14;1743165;81;20137;-78
2021/05/26 03:43:39;;;;;;;;;;;;;;;12.99;72.54;97557.77;1761171;80;20162;-77
2021/05/26 03:46:06;;;;;;;;;;;;;;;13.09;72.74;97554.69;1761678;81;20177;-85
2021/05/26 03:48:33;;;;;;;;;;;;;;;13.18;72.64;97556.56;1762585;81;20203;-80
2021/05/26 03:51:03;;;;;;;;;;;;;;;13.30;73.22;97561.34;1763265;81;20496;-83
2021/05/26 03:53:31;;;;;;;;;;;;;;;13.41;72.53;97559.95;1763173;80;20151;-79
2021/05/26 03:55:58;;;;;;;;;;;;;;;13.53;72.85;97558.10;1742513;81;20251;-81
2021/05/26 03:58:36;;;;;;;;;;;;;;;13.62;72.45;97558.28;1708143;83;20177;-80
2021/05/26 04:01:07;;;;;;;;;;;;;;;13.74;72.39;97570.45;1717607;82;20135;-80
2021/05/26 04:03:34;;;;;;;;;;;;;;;13.82;72.20;97569.81;1735082;83;20171;-84
2021/05/26 04:06:01;;;;;;;;;;;;;;;13.86;71.84;97571.23;1735237;83;20131;-79
2021/05/26 04:08:27;;;;;;;;;;;;;;;13.93;71.88;97577.67;1709032;83;20181;-79
2021/05/26 04:10:54;;;;;;;;;;;;;;;14.05;72.36;97575.30;1704226;83;20167;-80
2021/05/26 04:13:27;;;;;;;;;;;;;;;14.21;72.47;97580.58;1685582;83;20265;-78
2021/05/26 04:15:55;;;;;;;;;;;;;;;14.47;71.53;97586.25;1715358;83;20203;-78
2021/05/26 04:18:38;;;;;;;;;;;;;;;14.68;71.05;97588.83;1728830;83;20184;-79
2021/05/26 04:21:04;;;;;;;;;;;;;;;15.09;71.56;97587.39;1725968;83;20187;-79
2021/05/26 04:23:31;;;;;;;;;;;;;;;15.27;69.05;97587.50;1718889;83;20175;-79
2021/05/26 04:26:01;;;;;;;;;;;;;;;15.25;62.66;97581.99;1734967;82;20183;-81
2021/05/26 04:28:27;;;;;;;;;;;;;;;15.23;65.37;97580.81;1715937;81;20167;-81
2021/05/26 04:30:53;;;;;;;;;;;;;;;15.25;65.33;97582.84;1684450;85;20182;-79
2021/05/26 04:33:21;;;;;;;;;;;;;;;15.36;66.76;97579.19;1669688;85;20474;-79
2021/05/26 04:35:47;;;;;;;;;;;;;;;15.59;66.82;97581.55;1729508;82;20497;-78
2021/05/26 04:38:13;;;;;;;;;;;;;;;16.05;66.69;97581.20;1745560;82;20168;-82
2021/05/26 04:40:40;;;;;;;;;;;;;;;16.45;67.45;97578.36;1746969;82;20203;-82
2021/05/26 04:43:07;;;;;;;;;;;;;;;16.90;65.39;97574.84;1748706;82;20188;-83
2021/05/26 04:45:33;;;;;;;;;;;;;;;17.61;63.59;97573.14;1748068;82;20150;-83
2021/05/26 04:47:59;;;;;;;;;;;;;;;18.25;67.31;97566.66;1747263;82;20500;-81
2021/05/26 04:50:26;;;;;;;;;;;;;;;18.41;60.29;97575.23;1748590;82;20540;-81
2021/05/26 04:52:52;;;;;;;;;;;;;;;18.46;59.99;97571.59;1748494;82;20498;-82
2021/05/26 04:55:18;;;;;;;;;;;;;;;18.60;57.61;97574.14;1747858;82;20471;-82
2021/05/26 04:57:46;;;;;;;;;;;;;;;19.23;54.14;97573.25;1724581;82;20146;-82
2021/05/26 05:00:12;;;;;;;;;;;;;;;19.88;57.01;97566.20;1747650;82;20178;-82
2021/05/26 05:02:38;;;;;;;;;;;;;;;20.38;60.47;97568.20;1747562;82;20162;-82
2021/05/26 05:05:05;;;;;;;;;;;;;;;20.65;57.20;97570.06;1747686;82;20161;-82
2021/05/26 05:07:31;;;;;;;;;;;;;;;20.79;53.62;97567.69;1747829;82;20190;-83
2021/05/26 05:09:57;;;;;;;;;;;;;;;20.45;52.07;97571.02;1747629;82;20159;-80
2021/05/26 05:12:23;;;;;;;;;;;;;;;20.29;52.39;97579.95;1747617;82;20134;-82
2021/05/26 05:14:49;;;;;;;;;;;;;;;19.75;50.48;97565.36;1747674;82;20487;-82
2021/05/26 05:17:15;;;;;;;;;;;;;;;19.68;54.35;97583.58;1747699;81;20534;-83
2021/05/26 05:19:41;;;;;;;;;;;;;;;19.60;49.97;97573.72;1747558;82;20490;-82
2021/05/26 05:22:07;;;;;;;;;;;;;;;19.61;49.09;97580.74;1747807;82;20135;-83
2021/05/26 05:24:33;;;;;;;;;;;;;;;19.60;48.70;97573.23;1747849;82;20178;-83
2021/05/26 05:26:59;;;;;;;;;;;;;;;19.59;50.56;97576.06;1747863;82;20138;-83
2021/05/26 05:29:25;;;;;;;;;;;;;;;19.62;50.21;97583.27;1741546;82;20151;-82
2021/05/26 05:31:51;;;;;;;;;;;;;;;19.54;50.84;97581.09;1740424;82;20159;-82
2021/05/26 05:34:19;;;;;;;;;;;;;;;19.45;52.21;97589.60;1740230;82;20155;-83
2021/05/26 05:36:45;;;;;;;;;;;;;;;19.41;52.80;97581.60;1740388;82;20182;-82
2021/05/26 05:39:11;;;;;;;;;;;;;;;19.35;61.43;97587.94;1740512;82;20143;-83
2021/05/26 05:41:37;;;;;;;;;;;;;;;19.14;53.45;97579.08;1740269;82;20166;-82
2021/05/26 05:44:04;;;;;;;;;;;;;;;18.98;57.53;97583.90;1740578;82;20513;-80
2021/05/26 05:46:30;;;;;;;;;;;;;;;19.01;53.23;97587.59;1740547;82;20240;-81
2021/05/26 05:48:56;;;;;;;;;;;;;;;19.05;56.25;97584.08;1740409;82;20174;-83
2021/05/26 05:51:22;;;;;;;;;;;;;;;19.30;56.25;97588.12;1740499;82;20151;-81
2021/05/26 05:53:48;;;;;;;;;;;;;;;19.63;48.48;97584.91;1740522;82;20142;-82
2021/05/26 05:56:14;;;;;;;;;;;;;;;20.00;48.80;97564.50;1740632;82;20147;-82
2021/05/26 05:58:41;;;;;;;;;;;;;;;20.78;62.16;97580.75;1740470;82;20151;-81
2021/05/26 06:01:07;;;;;;;;;;;;;;;21.66;47.74;97579.95;1740641;82;20496;-83
2021/05/26 06:03:33;;;;;;;;;;;;;;;22.52;45.51;97583.54;1740655;82;20159;-82
2021/05/26 06:05:59;;;;;;;;;;;;;;;22.64;51.11;97584.41;1740606;82;20178;-82
2021/05/26 06:08:25;;;;;;;;;;;;;;;22.71;46.75;97578.06;1740692;82;20188;-82
2021/05/26 06:10:51;;;;;;;;;;;;;;;23.03;40.41;97577.28;1740613;82;20147;-82
2021/05/26 06:13:19;;;;;;;;;;;;;;;23.65;44.64;97583.03;1740391;82;20488;-81
2021/05/26 06:15:45;;;;;;;;;;;;;;;24.41;39.15;97572.55;1740435;82;20151;-82
2021/05/26 06:18:11;;;;;;;;;;;;;;;25.05;41.58;97572.69;1740495;81;20179;-83
2021/05/26 06:20:37;;;;;;;;;;;;;;;25.63;37.92;97568.58;1740465;82;20151;-81
2021/05/26 06:23:03;;;;;;;;;;;;;;;26.12;44.81;97574.59;1740477;82;20163;-81
2021/05/26 06:25:30;;;;;;;;;;;;;;;26.35;52.22;97567.86;1719774;82;20147;-81
2021/05/26 06:27:56;;;;;;;;;;;;;;;26.18;32.20;97562.93;1740390;82;20167;-83
2021/05/26 06:30:23;;;;;;;;;;;;;;;26.48;32.69;97565.12;1740443;82;20503;-80
2021/05/26 06:32:49;;;;;;;;;;;;;;;26.94;32.37;97565.12;1740386;82;20455;-81
2021/05/26 06:35:15;;;;;;;;;;;;;;;27.17;29.49;97565.07;1740275;82;20205;-81
2021/05/26 06:37:42;;;;;;;;;;;;;;;27.37;30.57;97561.70;1740749;82;20142;-80
2021/05/26 06:40:09;;;;;;;;;;;;;;;27.54;28.49;97564.73;1740552;82;20475;-82
2021/05/26 06:42:35;;;;;;;;;;;;;;;27.69;27.66;97567.61;1740639;82;20181;-82
2021/05/26 06:45:01;;;;;;;;;;;;;;;27.54;34.93;97560.67;1740598;82;20167;-84
2021/05/26 06:47:28;;;;;;;;;;;;;;;27.78;29.21;97562.76;1740639;82;20182;-83
2021/05/26 06:49:54;;;;;;;;;;;;;;;28.08;30.37;97568.82;1740512;82;20519;-82
2021/05/26 06:52:20;;;;;;;;;;;;;;;28.28;32.10;97568.08;1740593;82;20158;-83
2021/05/26 06:54:46;;;;;;;;;;;;;;;28.49;28.03;97553.77;1740607;82;20177;-82
2021/05/26 06:57:12;;;;;;;;;;;;;;;28.63;26.55;97557.14;1740539;82;20159;-81
2021/05/26 06:59:38;;;;;;;;;;;;;;;28.82;30.31;97562.02;1740559;82;20486;-82
2021/05/26 07:02:04;;;;;;;;;;;;;;;28.87;27.35;97562.69;1740434;82;20456;-82
2021/05/26 07:04:30;;;;;;;;;;;;;;;29.00;26.31;97563.87;1740579;82;20495;-83
2021/05/26 07:06:57;;;;;;;;;;;;;;;29.12;25.89;97552.53;1740489;82;20516;-83
2021/05/26 07:09:24;;;;;;;;;;;;;;;29.32;24.45;97549.20;1740620;82;20188;-82
2021/05/26 07:11:50;;;;;;;;;;;;;;;29.43;26.40;97551.14;1740864;82;20221;-82
2021/05/26 07:14:17;;;;;;;;;;;;;;;29.36;23.61;97552.59;1740559;82;20154;-82
2021/05/26 07:16:44;;;;;;;;;;;;;;;29.27;31.11;97554.81;1719395;81;20171;-82
2021/05/26 07:19:10;;;;;;;;;;;;;;;28.98;24.82;97549.19;1740574;82;20151;-82
2021/05/26 07:21:36;;;;;;;;;;;;;;;28.97;28.52;97552.11;1740385;82;20147;-83
2021/05/26 07:24:04;;;;;;;;;;;;;;;28.30;29.47;97557.04;1740618;82;20151;-82
2021/05/26 07:26:33;;;;;;;;;;;;;;;27.58;34.20;97551.58;1740588;82;20159;-82
2021/05/26 07:28:59;;;;;;;;;;;;;;;27.14;26.98;97550.65;1736382;82;20175;-82
2021/05/26 07:31:25;;;;;;;;;;;;;;;26.94;29.88;97551.61;1727515;82;20523;-81
2021/05/26 07:33:52;;;;;;;;;;;;;;;26.27;30.93;97550.00;1727415;82;20151;-82
2021/05/26 07:36:19;;;;;;;;;;;;;;;26.07;30.91;97551.39;1727366;82;20163;-83
2021/05/26 07:38:49;;;;;;;;;;;;;;;26.24;32.28;97546.90;1727296;82;20180;-80
2021/05/26 07:41:17;;;;;;;;;;;;;;;25.79;32.21;97544.38;1727330;82;20198;-80
2021/05/26 07:43:43;;;;;;;;;;;;;;;25.23;33.53;97549.69;1727340;83;20203;-82
2021/05/26 07:46:09;;;;;;;;;;;;;;;24.99;32.64;97543.01;1727323;82;20191;-80
2021/05/26 07:48:35;;;;;;;;;;;;;;;24.76;32.71;97545.54;1727262;82;20206;-82
2021/05/26 07:51:04;;;;;;;;;;;;;;;24.29;33.22;97545.36;1727139;83;20539;-82
2021/05/26 07:53:30;;;;;;;;;;;;;;;24.36;32.38;97547.55;1727323;83;20171;-81
2021/05/26 07:55:58;;;;;;;;;;;;;;;23.95;32.39;97546.52;1727386;82;20238;-81
2021/05/26 07:58:26;;;;;;;;;;;;;;;23.35;33.38;97547.41;1727091;83;20239;-82
2021/05/26 08:00:52;;;;;;;;;;;;;;;22.49;34.62;97542.27;1727350;82;20162;-82
2021/05/26 08:03:18;;;;;;;;;;;;;;;22.27;34.98;97548.07;1727297;83;20194;-81
2021/05/26 08:05:44;;;;;;;;;;;;;;;22.51;37.01;97547.45;1727236;82;20167;-82
2021/05/26 08:08:13;;;;;;;;;;;;;;;22.64;35.55;97543.59;1727227;83;20555;-83
2021/05/26 08:10:39;;;;;;;;;;;;;;;22.75;36.79;97547.13;1727333;82;20163;-82
2021/05/26 08:13:05;;;;;;;;;;;;;;;22.74;36.02;97544.61;1727310;83;20196;-82
2021/05/26 08:15:31;;;;;;;;;;;;;;;22.40;34.15;97552.31;1727326;83;20266;-82
2021/05/26 08:17:57;;;;;;;;;;;;;;;22.25;34.60;97546.08;1694563;84;20186;-82
2021/05/26 08:20:27;;;;;;;;;;;;;;;22.37;35.06;97539.70;1727251;83;20151;-83
2021/05/26 08:22:53;;;;;;;;;;;;;;;21.90;34.95;97535.08;1727463;82;20194;-82
2021/05/26 08:25:19;;;;;;;;;;;;;;;21.59;35.81;97544.11;1727651;82;20186;-82
2021/05/26 08:27:45;;;;;;;;;;;;;;;21.55;36.62;97541.45;1727186;83;20520;-83
2021/05/26 08:30:12;;;;;;;;;;;;;;;21.68;35.08;97532.28;1751271;81;20166;-82
2021/05/26 08:32:38;;;;;;;;;;;;;;;22.21;35.06;97528.17;1761304;81;20202;-82
2021/05/26 08:35:04;;;;;;;;;;;;;;;22.56;33.75;97531.61;1761211;81;20498;-82
2021/05/26 08:37:31;;;;;;;;;;;;;;;22.91;35.94;97527.73;1761322;81;20198;-82
2021/05/26 08:39:59;;;;;;;;;;;;;;;22.94;32.47;97527.37;1761133;81;20157;-83
2021/05/26 08:42:24;;;;;;;;;;;;;;;23.13;33.92;97534.47;1761319;81;20162;-82
2021/05/26 08:44:52;;;;;;;;;;;;;;;23.27;32.46;97528.73;1761323;81;20140;-82
2021/05/26 08:47:20;;;;;;;;;;;;;;;23.39;34.38;97524.46;1761294;81;20146;-81
2021/05/26 08:49:48;;;;;;;;;;;;;;;23.42;32.67;97525.42;1761148;81;20169;-81
2021/05/26 08:52:15;;;;;;;;;;;;;;;23.55;32.68;97528.23;1761257;81;20263;-83
2021/05/26 08:54:45;;;;;;;;;;;;;;;23.64;33.82;97528.89;1761487;81;20140;-82
2021/05/26 08:57:11;;;;;;;;;;;;;;;23.72;33.68;97533.30;1761012;81;20218;-82
2021/05/26 08:59:37;;;;;;;;;;;;;;;23.50;35.16;97532.00;1761242;81;20149;-81
2021/05/26 09:02:03;;;;;;;;;;;;;;;23.59;33.41;97527.32;1761478;81;20217;-81
2021/05/26 09:04:34;;;;;;;;;;;;;;;23.94;34.29;97527.86;1761224;81;20221;-83
2021/05/26 09:07:18;;;;;;;;;;;;;;;24.16;33.67;97522.70;1761124;81;20150;-82
2021/05/26 09:10:02;;;;;;;;;;;;;;;23.97;33.19;97519.39;1737749;81;20165;-83
2021/05/26 09:12:34;;;;;;;;;;;;;;;23.33;32.97;97518.03;1761356;81;20215;-80
2021/05/26 09:15:16;;;;;;;;;;;;;;;22.87;32.35;97517.89;1761316;81;20162;-82
2021/05/26 09:17:43;;;;;;;;;;;;;;;22.81;32.97;97511.09;1761250;80;20208;-83
2021/05/26 09:20:15;;;;;;;;;;;;;;;23.08;35.62;97514.36;1761173;81;20150;-83
2021/05/26 09:23:03;;;;;;;;;;;;;;;23.11;33.59;97512.31;1761176;81;20479;-82
2021/05/26 09:25:31;;;;;;;;;;;;;;;23.18;33.81;97503.33;1756527;81;20146;-83
2021/05/26 09:28:19;;;;;;;;;;;;;;;23.27;35.14;97509.91;1761488;81;20551;-83
2021/05/26 09:30:55;;;;;;;;;;;;;;;23.30;34.96;97510.34;1753099;81;20166;-82
2021/05/26 09:33:25;;;;;;;;;;;;;;;23.29;35.67;97495.75;1750945;82;20150;-83
2021/05/26 09:36:17;;;;;;;;;;;;;;;23.32;34.51;97499.38;1751256;82;20150;-82
2021/05/26 09:38:50;;;;;;;;;;;;;;;23.30;35.00;97492.86;1751361;81;20166;-81
2021/05/26 09:41:31;;;;;;;;;;;;;;;23.30;35.93;97496.89;1751276;82;20266;-82
2021/05/26 09:44:06;;;;;;;;;;;;;;;23.31;35.81;97490.49;1751262;81;20235;-82
2021/05/26 09:46:33;;;;;;;;;;;;;;;23.16;35.80;97491.05;1751205;81;20186;-82
2021/05/26 09:49:03;;;;;;;;;;;;;;;23.14;37.06;97483.70;1751227;82;20246;-80
2021/05/26 09:51:31;;;;;;;;;;;;;;;23.08;37.10;97479.94;1749209;82;20284;-81
2021/05/26 09:54:12;;;;;;;;;;;;;;;22.74;36.18;97476.95;1749332;82;20217;-81
2021/05/26 09:56:39;;;;;;;;;;;;;;;22.59;35.74;97478.87;1751859;80;20447;-83
2021/05/26 09:59:05;;;;;;;;;;;;;;;22.44;37.44;97478.39;1750457;82;20162;-82
2021/05/26 10:01:32;;;;;;;;;;;;;;;22.40;36.41;97471.75;1751794;82;20154;-80
2021/05/26 10:03:59;;;;;;;;;;;;;;;22.37;36.69;97471.23;1749525;82;20222;-82
2021/05/26 10:06:28;;;;;;;;;;;;;;;22.29;35.40;97471.68;1746095;81;20146;-80
2021/05/26 10:09:12;;;;;;;;;;;;;;;22.18;35.57;97468.13;1751270;82;20193;-82
2021/05/26 10:11:57;;;;;;;;;;;;;;;22.08;36.41;97468.44;1747747;81;20170;-80
2021/05/26 10:14:30;;;;;;;;;;;;;;;21.70;36.93;97463.20;1749207;81;20162;-82
2021/05/26 10:16:57;;;;;;;;;;;;;;;21.70;37.22;97460.52;1751237;81;20159;-81
2021/05/26 10:19:23;;;;;;;;;;;;;;;21.75;38.01;97458.13;1751568;82;20216;-81
2021/05/26 10:21:50;;;;;;;;;;;;;;;21.74;37.94;97460.48;1759058;80;20159;-81
2021/05/26 10:24:21;;;;;;;;;;;;;;;21.74;37.38;97452.44;1764750;81;20150;-79
2021/05/26 10:27:01;;;;;;;;;;;;;;;21.83;37.32;97451.31;1751873;82;20142;-79
2021/05/26 10:29:31;;;;;;;;;;;;;;;22.00;37.84;97451.92;1750554;82;20150;-79
2021/05/26 10:32:04;;;;;;;;;;;;;;;21.97;35.70;97449.64;1748688;82;20280;-81
2021/05/26 10:34:47;;;;;;;;;;;;;;;21.83;36.35;97445.11;1745846;81;20185;-80
2021/05/26 10:37:16;;;;;;;;;;;;;;;21.81;37.56;97441.77;1738715;80;20154;-82
2021/05/26 10:39:43;;;;;;;;;;;;;;;21.73;36.86;97442.72;1735144;82;20530;-81
2021/05/26 10:42:30;;;;;;;;;;;;;;;21.58;36.49;97445.86;1735830;83;20187;-80
2021/05/26 10:45:04;;;;;;;;;;;;;;;21.55;37.60;97437.69;1735826;82;20166;-82
2021/05/26 10:47:46;;;;;;;;;;;;;;;21.53;37.34;97427.64;1741332;82;20142;-80
2021/05/26 10:50:15;;;;;;;;;;;;;;;21.46;37.03;97430.26;1732832;81;20161;-80
2021/05/26 10:53:01;;;;;;;;;;;;;;;21.34;37.62;97425.84;1738583;82;20147;-80
2021/05/26 10:55:40;;;;;;;;;;;;;;;21.31;38.16;97420.02;1731499;82;20467;-80
2021/05/26 10:58:35;;;;;;;;;;;;;;;21.19;38.80;97417.81;1726484;82;20221;-80
2021/05/26 11:01:07;;;;;;;;;;;;;;;21.17;39.09;97413.13;1734362;82;20498;-81
2021/05/26 11:03:36;;;;;;;;;;;;;;;21.01;38.83;97417.32;1727914;82;20272;-81
2021/05/26 11:06:13;;;;;;;;;;;;;;;21.04;38.68;97421.80;1740572;82;20162;-81
2021/05/26 11:08:49;;;;;;;;;;;;;;;20.71;39.12;97412.67;1732511;82;20511;-80
2021/05/26 11:11:29;;;;;;;;;;;;;;;20.69;39.48;97407.17;1722195;82;20483;-80
2021/05/26 11:14:14;;;;;;;;;;;;;;;20.66;39.51;97403.51;1740561;82;20174;-80
2021/05/26 11:16:47;;;;;;;;;;;;;;;20.81;39.90;97396.89;1722497;82;20161;-78
2021/05/26 11:19:16;;;;;;;;;;;;;;;20.87;40.02;97392.17;1727809;82;20150;-82
2021/05/26 11:21:54;;;;;;;;;;;;;;;20.84;39.05;97396.02;1732006;82;20166;-82
2021/05/26 11:24:21;;;;;;;;;;;;;;;20.93;39.54;97398.12;1737481;82;20182;-81
2021/05/26 11:26:48;;;;;;;;;;;;;;;20.79;39.60;97398.42;1740794;82;20150;-79
2021/05/26 11:29:28;;;;;;;;;;;;;;;20.81;39.88;97402.25;1733720;82;20150;-81
2021/05/26 11:32:08;;;;;;;;;;;;;;;20.74;39.73;97398.96;1729852;82;20146;-81
2021/05/26 11:34:39;;;;;;;;;;;;;;;20.77;40.25;97391.06;1745880;81;20143;-83
2021/05/26 11:37:07;;;;;;;;;;;;;;;21.01;40.66;97387.84;1746231;81;20203;-81
2021/05/26 11:39:34;;;;;;;;;;;;;;;21.15;39.58;97374.95;1740072;81;20178;-80
2021/05/26 11:42:12;;;;;;;;;;;;;;;21.22;39.37;97380.42;1731733;82;20171;-82
2021/05/26 11:44:40;;;;;;;;;;;;;;;21.24;39.03;97377.55;1733308;82;20471;-80
2021/05/26 11:47:08;;;;;;;;;;;;;;;21.36;39.40;97378.76;1737417;82;20194;-82
2021/05/26 11:49:37;;;;;;;;;;;;;;;21.34;38.59;97385.63;1739109;82;20166;-82
2021/05/26 11:52:04;;;;;;;;;;;;;;;21.40;38.95;97378.69;1755450;81;20187;-82
2021/05/26 11:54:31;;;;;;;;;;;;;;;21.44;39.37;97374.64;1740169;82;20167;-81
2021/05/26 11:57:07;;;;;;;;;;;;;;;21.55;39.13;97372.51;1740384;82;20151;-81
2021/05/26 11:59:30;;;;;;;;;;;;;;;21.48;38.12;97366.53;1721678;82;20213;-81
2021/05/26 12:01:59;;;;;;;;;;;;;;;21.67;38.29;97360.30;1735760;81;20170;-81
2021/05/26 12:04:25;;;;;;;;;;;;;;;21.74;38.78;97356.36;1750878;81;20156;-81
2021/05/26 12:06:54;;;;;;;;;;;;;;;21.81;38.25;97353.23;1770560;81;20192;-79
2021/05/26 12:09:30;;;;;;;;;;;;;;;21.97;38.75;97351.69;1771146;81;20168;-79
2021/05/26 12:11:57;;;;;;;;;;;;;;;22.16;38.47;97348.06;1772527;81;20512;-80
2021/05/26 12:14:28;;;;;;;;;;;;;;;22.11;37.86;97342.42;1772476;81;20180;-79
2021/05/26 12:16:55;;;;;;;;;;;;;;;22.10;38.54;97345.62;1754223;81;20166;-80
2021/05/26 12:19:29;;;;;;;;;;;;;;;22.20;37.62;97340.45;1726193;82;20170;-79
2021/05/26 12:22:14;;;;;;;;;;;;;;;22.19;38.12;97332.90;1728117;82;20502;-78
2021/05/26 12:25:00;;;;;;;;;;;;;;;21.93;37.56;97337.50;1733919;82;20159;-79
2021/05/26 12:27:43;;;;;;;;;;;;;;;21.50;38.21;97338.20;1733679;81;20151;-79
2021/05/26 12:30:27;;;;;;;;;;;;;;;21.13;38.88;97321.23;1775901;80;20480;-79
2021/05/26 12:33:15;;;;;;;;;;;;;;;21.10;40.13;97322.44;1781272;80;20219;-79
2021/05/26 12:35:42;;;;;;;;;;;;;;;21.20;39.75;97313.58;1764541;80;20536;-79
2021/05/26 12:38:19;;;;;;;;;;;;;;;21.33;39.79;97310.76;1758844;80;20150;-80
2021/05/26 12:40:46;;;;;;;;;;;;;;;21.57;40.13;97311.48;1764266;80;20539;-79
2021/05/26 12:43:27;;;;;;;;;;;;;;;21.78;40.01;97306.16;1780004;80;20516;-79
2021/05/26 12:45:54;;;;;;;;;;;;;;;22.03;39.68;97305.82;1747297;80;20167;-78
2021/05/26 12:48:21;;;;;;;;;;;;;;;22.05;38.53;97308.30;1715819;84;20141;-79
2021/05/26 12:50:48;;;;;;;;;;;;;;;22.07;38.32;97303.06;1737127;80;20170;-79
2021/05/26 12:53:16;;;;;;;;;;;;;;;21.96;38.78;97300.88;1760003;80;20186;-78
2021/05/26 12:55:43;;;;;;;;;;;;;;;21.84;38.55;97296.03;1751594;80;20169;-79
2021/05/26 12:58:15;;;;;;;;;;;;;;;21.98;39.24;97297.50;1766778;80;20143;-79
2021/05/26 13:00:45;;;;;;;;;;;;;;;21.97;38.42;97290.47;1787886;80;20242;-81